Terminal Aerodrome Forecast
Issued by NWS Dodge City, KS

Home | Current Version | Previous Version | Text Only | Print | Product List | Glossary On
Versions: 1 2 3 4 5 6 7 8 9 10 11 12 13 14 15 16 17 18 19 20 21 22 23 24 25 26 27 28 29 30 31 32 33
000
FTUS43 KDDC 261252 AAA
TAFDDC
TAF AMD
KDDC 261252Z 2613/2712 18009KT 2SM BR SCT002 SCT150
     FM261400 16011KT P6SM SCT150
     FM262000 15016G25KT P6SM VCTS SCT250CB
     FM262300 16017KT P6SM SCT250
     FM271100 17010KT P6SM FEW050=

USA.gov is the U.S. government's official web portal to all federal, state and local government web resources and services.